sensor_id;sensor_type;location;lat;lon;timestamp;pressure;altitude;pressure_sealevel;temperature;humidity
74615;BME280;63121;51.458;-0.110;2022-11-09T00:00:43;99886.81;;;20.50;58.07
74615;BME280;63121;51.458;-0.110;2022-11-09T00:03:09;99889.53;;;20.49;58.40
74615;BME280;63121;51.458;-0.110;2022-11-09T00:05:35;99890.59;;;20.46;58.10
74615;BME280;63121;51.458;-0.110;2022-11-09T00:08:04;99899.41;;;20.45;58.25
74615;BME280;63121;51.458;-0.110;2022-11-09T00:10:31;99899.19;;;20.48;58.43
74615;BME280;63121;51.458;-0.110;2022-11-09T00:12:57;99900.16;;;20.47;58.52
74615;BME280;63121;51.458;-0.110;2022-11-09T00:15:22;99902.84;;;20.46;58.18
74615;BME280;63121;51.458;-0.110;2022-11-09T00:17:47;99897.72;;;20.44;58.80
74615;BME280;63121;51.458;-0.110;2022-11-09T00:20:13;99894.16;;;20.45;58.27
74615;BME280;63121;51.458;-0.110;2022-11-09T00:22:38;99892.59;;;20.43;58.53
74615;BME280;63121;51.458;-0.110;2022-11-09T00:25:04;99889.09;;;20.42;58.72
74615;BME280;63121;51.458;-0.110;2022-11-09T00:27:29;99891.72;;;20.42;58.12
74615;BME280;63121;51.458;-0.110;2022-11-09T00:29:54;99898.84;;;20.40;58.38
74615;BME280;63121;51.458;-0.110;2022-11-09T00:32:20;99891.94;;;20.39;58.83
74615;BME280;63121;51.458;-0.110;2022-11-09T00:34:45;99893.91;;;20.36;58.08
74615;BME280;63121;51.458;-0.110;2022-11-09T00:37:11;99895.78;;;20.34;58.09
74615;BME280;63121;51.458;-0.110;2022-11-09T00:39:36;99893.16;;;20.34;58.35
74615;BME280;63121;51.458;-0.110;2022-11-09T00:42:01;99897.47;;;20.35;58.65
74615;BME280;63121;51.458;-0.110;2022-11-09T00:44:27;99889.72;;;20.33;58.43
74615;BME280;63121;51.458;-0.110;2022-11-09T00:46:52;99894.13;;;20.33;58.52
74615;BME280;63121;51.458;-0.110;2022-11-09T00:49:17;99895.34;;;20.27;58.24
74615;BME280;63121;51.458;-0.110;2022-11-09T00:51:43;99908.38;;;20.28;58.71
74615;BME280;63121;51.458;-0.110;2022-11-09T00:54:08;99904.13;;;20.26;59.01
74615;BME280;63121;51.458;-0.110;2022-11-09T00:56:34;99897.22;;;20.25;58.51
74615;BME280;63121;51.458;-0.110;2022-11-09T00:58:59;99900.97;;;20.21;59.10
74615;BME280;63121;51.458;-0.110;2022-11-09T01:01:24;99900.97;;;20.21;59.13
74615;BME280;63121;51.458;-0.110;2022-11-09T01:03:50;99904.56;;;20.20;58.93
74615;BME280;63121;51.458;-0.110;2022-11-09T01:06:21;99908.31;;;20.16;58.98
74615;BME280;63121;51.458;-0.110;2022-11-09T01:08:47;99909.22;;;20.15;59.16
74615;BME280;63121;51.458;-0.110;2022-11-09T01:11:15;99917.94;;;20.15;59.11
74615;BME280;63121;51.458;-0.110;2022-11-09T01:13:41;99918.97;;;20.13;59.08
74615;BME280;63121;51.458;-0.110;2022-11-09T01:19:28;99919.06;;;20.11;59.19
74615;BME280;63121;51.458;-0.110;2022-11-09T01:21:54;99913.94;;;20.09;58.80
74615;BME280;63121;51.458;-0.110;2022-11-09T01:24:19;99916.75;;;20.06;59.45
74615;BME280;63121;51.458;-0.110;2022-11-09T01:26:44;99929.00;;;20.06;59.02
74615;BME280;63121;51.458;-0.110;2022-11-09T01:29:10;99921.34;;;20.03;59.25
74615;BME280;63121;51.458;-0.110;2022-11-09T01:31:35;99923.97;;;20.03;59.03
74615;BME280;63121;51.458;-0.110;2022-11-09T01:34:00;99917.25;;;19.99;59.32
74615;BME280;63121;51.458;-0.110;2022-11-09T01:36:26;99915.63;;;19.96;58.99
74615;BME280;63121;51.458;-0.110;2022-11-09T01:38:51;99918.25;;;19.96;59.07
74615;BME280;63121;51.458;-0.110;2022-11-09T01:41:23;99914.88;;;19.94;59.32
74615;BME280;63121;51.458;-0.110;2022-11-09T01:46:33;99917.81;;;19.89;59.26
74615;BME280;63121;51.458;-0.110;2022-11-09T01:49:03;99918.47;;;19.93;59.25
74615;BME280;63121;51.458;-0.110;2022-11-09T01:51:39;99924.63;;;19.92;58.97
74615;BME280;63121;51.458;-0.110;2022-11-09T01:54:17;99921.16;;;19.92;59.42
74615;BME280;63121;51.458;-0.110;2022-11-09T01:56:45;99925.47;;;19.93;59.15
74615;BME280;63121;51.458;-0.110;2022-11-09T01:59:16;99922.22;;;19.89;59.07
74615;BME280;63121;51.458;-0.110;2022-11-09T02:01:44;99924.81;;;19.89;59.58
74615;BME280;63121;51.458;-0.110;2022-11-09T02:04:11;99924.09;;;19.87;59.19
74615;BME280;63121;51.458;-0.110;2022-11-09T02:06:38;99924.28;;;19.84;59.28
74615;BME280;63121;51.458;-0.110;2022-11-09T02:11:56;99942.41;;;19.87;58.88
74615;BME280;63121;51.458;-0.110;2022-11-09T02:14:24;99932.88;;;19.86;59.14
74615;BME280;63121;51.458;-0.110;2022-11-09T02:16:50;99932.22;;;19.82;58.97
74615;BME280;63121;51.458;-0.110;2022-11-09T02:19:16;99932.22;;;19.82;59.29
74615;BME280;63121;51.458;-0.110;2022-11-09T02:21:41;99935.97;;;19.78;59.26
74615;BME280;63121;51.458;-0.110;2022-11-09T02:24:07;99927.28;;;19.78;59.93
74615;BME280;63121;51.458;-0.110;2022-11-09T02:28:58;99924.00;;;19.74;59.23
74615;BME280;63121;51.458;-0.110;2022-11-09T02:31:30;99928.28;;;19.75;59.87
74615;BME280;63121;51.458;-0.110;2022-11-09T02:34:16;99925.13;;;19.70;58.60
74615;BME280;63121;51.458;-0.110;2022-11-09T02:36:42;99930.06;;;19.75;59.82
74615;BME280;63121;51.458;-0.110;2022-11-09T02:39:08;99934.66;;;19.71;59.97
74615;BME280;63121;51.458;-0.110;2022-11-09T02:41:41;99936.44;;;19.70;59.27
74615;BME280;63121;51.458;-0.110;2022-11-09T02:44:07;99933.16;;;19.67;59.72
74615;BME280;63121;51.458;-0.110;2022-11-09T02:46:35;99941.59;;;19.72;59.29
74615;BME280;63121;51.458;-0.110;2022-11-09T02:49:01;99941.72;;;19.69;59.47
74615;BME280;63121;51.458;-0.110;2022-11-09T02:51:27;99945.22;;;19.69;59.80
74615;BME280;63121;51.458;-0.110;2022-11-09T02:53:52;99939.88;;;19.71;59.35
74615;BME280;63121;51.458;-0.110;2022-11-09T02:56:18;99947.16;;;19.66;59.51
74615;BME280;63121;51.458;-0.110;2022-11-09T02:58:43;99936.69;;;19.66;59.14
74615;BME280;63121;51.458;-0.110;2022-11-09T03:01:09;99942.75;;;19.66;59.60
74615;BME280;63121;51.458;-0.110;2022-11-09T03:03:34;99947.09;;;19.67;59.46
74615;BME280;63121;51.458;-0.110;2022-11-09T03:06:00;99942.03;;;19.64;59.04
74615;BME280;63121;51.458;-0.110;2022-11-09T03:08:25;99937.53;;;19.66;60.14
74615;BME280;63121;51.458;-0.110;2022-11-09T03:10:50;99941.28;;;19.62;59.24
74615;BME280;63121;51.458;-0.110;2022-11-09T03:13:16;99945.59;;;19.63;59.05
74615;BME280;63121;51.458;-0.110;2022-11-09T03:15:41;99956.97;;;19.62;59.11
74615;BME280;63121;51.458;-0.110;2022-11-09T03:18:06;99959.72;;;19.61;59.27
74615;BME280;63121;51.458;-0.110;2022-11-09T03:20:32;99953.59;;;19.60;59.00
74615;BME280;63121;51.458;-0.110;2022-11-09T03:22:58;99951.94;;;19.59;59.43
74615;BME280;63121;51.458;-0.110;2022-11-09T03:25:25;99946.63;;;19.61;59.51
74615;BME280;63121;51.458;-0.110;2022-11-09T03:27:56;99951.84;;;19.61;59.36
74615;BME280;63121;51.458;-0.110;2022-11-09T03:30:21;99956.97;;;19.62;59.26
74615;BME280;63121;51.458;-0.110;2022-11-09T03:32:47;99957.25;;;19.58;59.27
74615;BME280;63121;51.458;-0.110;2022-11-09T03:35:12;99960.84;;;19.57;59.15
74615;BME280;63121;51.458;-0.110;2022-11-09T03:37:37;99954.72;;;19.56;59.33
74615;BME280;63121;51.458;-0.110;2022-11-09T03:40:03;99961.75;;;19.56;59.38
74615;BME280;63121;51.458;-0.110;2022-11-09T03:42:29;99966.31;;;19.52;59.60
74615;BME280;63121;51.458;-0.110;2022-11-09T03:44:54;99960.25;;;19.52;59.38
74615;BME280;63121;51.458;-0.110;2022-11-09T03:47:19;99967.19;;;19.53;59.40
74615;BME280;63121;51.458;-0.110;2022-11-09T03:49:45;99970.63;;;19.53;59.82
74615;BME280;63121;51.458;-0.110;2022-11-09T03:52:10;99966.97;;;19.56;59.63
74615;BME280;63121;51.458;-0.110;2022-11-09T03:54:35;99978.56;;;19.52;59.70
74615;BME280;63121;51.458;-0.110;2022-11-09T03:57:01;99978.56;;;19.52;59.70
74615;BME280;63121;51.458;-0.110;2022-11-09T03:59:26;99979.59;;;19.49;59.56
74615;BME280;63121;51.458;-0.110;2022-11-09T04:01:51;99979.41;;;19.52;59.52
74615;BME280;63121;51.458;-0.110;2022-11-09T04:04:17;99974.91;;;19.54;59.88
74615;BME280;63121;51.458;-0.110;2022-11-09T04:06:42;99979.53;;;19.50;59.84
74615;BME280;63121;51.458;-0.110;2022-11-09T04:09:08;99984.47;;;19.55;59.82
74615;BME280;63121;51.458;-0.110;2022-11-09T04:11:34;99984.19;;;19.60;59.53
74615;BME280;63121;51.458;-0.110;2022-11-09T04:13:59;99985.78;;;19.62;59.15
74615;BME280;63121;51.458;-0.110;2022-11-09T04:16:24;99985.91;;;19.61;59.50
74615;BME280;63121;51.458;-0.110;2022-11-09T04:18:50;99988.50;;;19.61;58.78
74615;BME280;63121;51.458;-0.110;2022-11-09T04:21:15;99992.88;;;19.60;59.36
74615;BME280;63121;51.458;-0.110;2022-11-09T04:23:41;99995.34;;;19.63;59.21
74615;BME280;63121;51.458;-0.110;2022-11-09T04:26:06;100000.19;;;19.69;60.17
74615;BME280;63121;51.458;-0.110;2022-11-09T04:28:31;99998.25;;;19.73;59.05
74615;BME280;63121;51.458;-0.110;2022-11-09T04:31:00;100004.34;;;19.74;59.99
74615;BME280;63121;51.458;-0.110;2022-11-09T04:33:26;99995.84;;;19.70;59.33
74615;BME280;63121;51.458;-0.110;2022-11-09T04:35:52;99990.22;;;19.76;59.01
74615;BME280;63121;51.458;-0.110;2022-11-09T04:38:17;99986.84;;;19.74;58.87
74615;BME280;63121;51.458;-0.110;2022-11-09T04:40:42;99992.94;;;19.75;59.19
74615;BME280;63121;51.458;-0.110;2022-11-09T04:43:11;99995.75;;;19.72;58.85
74615;BME280;63121;51.458;-0.110;2022-11-09T04:45:37;99991.34;;;19.72;59.11
74615;BME280;63121;51.458;-0.110;2022-11-09T04:48:05;99996.50;;;19.74;58.95
74615;BME280;63121;51.458;-0.110;2022-11-09T04:50:31;99997.34;;;19.74;59.16
74615;BME280;63121;51.458;-0.110;2022-11-09T04:53:07;99997.59;;;19.69;58.63
74615;BME280;63121;51.458;-0.110;2022-11-09T04:55:33;100004.69;;;19.67;58.81
74615;BME280;63121;51.458;-0.110;2022-11-09T04:57:59;100004.78;;;19.66;58.60
74615;BME280;63121;51.458;-0.110;2022-11-09T05:00:24;100007.31;;;19.67;58.81
74615;BME280;63121;51.458;-0.110;2022-11-09T05:02:51;100003.94;;;19.65;59.23
74615;BME280;63121;51.458;-0.110;2022-11-09T05:05:17;100016.06;;;19.66;59.25
74615;BME280;63121;51.458;-0.110;2022-11-09T05:07:42;100017.03;;;19.65;59.27
74615;BME280;63121;51.458;-0.110;2022-11-09T05:10:08;100021.44;;;19.65;59.16
74615;BME280;63121;51.458;-0.110;2022-11-09T05:12:33;100036.38;;;19.63;58.41
74615;BME280;63121;51.458;-0.110;2022-11-09T05:14:59;100020.75;;;19.61;58.73
74615;BME280;63121;51.458;-0.110;2022-11-09T05:17:24;100016.56;;;19.59;59.09
74615;BME280;63121;51.458;-0.110;2022-11-09T05:19:49;100023.53;;;19.58;58.53
74615;BME280;63121;51.458;-0.110;2022-11-09T05:22:15;100032.50;;;19.54;58.41
74615;BME280;63121;51.458;-0.110;2022-11-09T05:24:59;100047.31;;;19.55;58.51
74615;BME280;63121;51.458;-0.110;2022-11-09T05:27:24;100039.53;;;19.54;58.29
74615;BME280;63121;51.458;-0.110;2022-11-09T05:29:49;100032.50;;;19.54;58.36
74615;BME280;63121;51.458;-0.110;2022-11-09T05:32:15;100027.47;;;19.51;58.31
74615;BME280;63121;51.458;-0.110;2022-11-09T05:34:40;100030.94;;;19.52;58.82
74615;BME280;63121;51.458;-0.110;2022-11-09T05:37:05;100030.09;;;19.51;58.89
74615;BME280;63121;51.458;-0.110;2022-11-09T05:39:31;100031.75;;;19.52;58.93
74615;BME280;63121;51.458;-0.110;2022-11-09T05:41:56;100029.44;;;19.47;59.17
74615;BME280;63121;51.458;-0.110;2022-11-09T05:44:21;100025.78;;;19.50;59.66
74615;BME280;63121;51.458;-0.110;2022-11-09T05:46:47;100026.81;;;19.47;59.72
74615;BME280;63121;51.458;-0.110;2022-11-09T05:49:12;100024.31;;;19.46;59.29
74615;BME280;63121;51.458;-0.110;2022-11-09T05:51:37;100023.34;;;19.47;59.37
74615;BME280;63121;51.458;-0.110;2022-11-09T05:54:03;100030.38;;;19.46;59.13
74615;BME280;63121;51.458;-0.110;2022-11-09T05:56:28;100025.13;;;19.46;59.67
74615;BME280;63121;51.458;-0.110;2022-11-09T05:58:54;100034.94;;;19.43;59.49
74615;BME280;63121;51.458;-0.110;2022-11-09T06:01:19;100034.03;;;19.44;59.12
74615;BME280;63121;51.458;-0.110;2022-11-09T06:03:44;100024.47;;;19.43;59.38
74615;BME280;63121;51.458;-0.110;2022-11-09T06:06:14;100017.44;;;19.43;59.54
74615;BME280;63121;51.458;-0.110;2022-11-09T06:08:40;100020.53;;;19.50;58.75
74615;BME280;63121;51.458;-0.110;2022-11-09T06:11:08;100029.06;;;19.54;58.74
74615;BME280;63121;51.458;-0.110;2022-11-09T06:13:34;100018.31;;;19.58;59.30
74615;BME280;63121;51.458;-0.110;2022-11-09T06:16:01;100022.53;;;19.61;58.89
74615;BME280;63121;51.458;-0.110;2022-11-09T06:18:29;100032.16;;;19.60;58.85
74615;BME280;63121;51.458;-0.110;2022-11-09T06:20:56;100033.09;;;19.59;58.71
74615;BME280;63121;51.458;-0.110;2022-11-09T06:23:22;100032.81;;;19.64;59.64
74615;BME280;63121;51.458;-0.110;2022-11-09T06:25:56;100045.00;;;19.65;59.28
74615;BME280;63121;51.458;-0.110;2022-11-09T06:28:21;100044.13;;;19.64;59.08
74615;BME280;63121;51.458;-0.110;2022-11-09T06:30:47;100048.34;;;19.53;59.00
74615;BME280;63121;51.458;-0.110;2022-11-09T06:33:12;100065.28;;;19.61;59.32
74615;BME280;63121;51.458;-0.110;2022-11-09T06:35:38;100069.75;;;19.59;59.54
74615;BME280;63121;51.458;-0.110;2022-11-09T06:38:03;100070.50;;;19.61;59.48
74615;BME280;63121;51.458;-0.110;2022-11-09T06:40:28;100073.22;;;19.60;58.89
74615;BME280;63121;51.458;-0.110;2022-11-09T06:42:58;100073.78;;;19.65;58.52
74615;BME280;63121;51.458;-0.110;2022-11-09T06:45:24;100074.38;;;19.70;58.21
74615;BME280;63121;51.458;-0.110;2022-11-09T06:47:50;100077.69;;;19.74;58.35
74615;BME280;63121;51.458;-0.110;2022-11-09T06:50:15;100083.06;;;19.70;58.36
74615;BME280;63121;51.458;-0.110;2022-11-09T06:52:41;100091.59;;;19.74;58.13
74615;BME280;63121;51.458;-0.110;2022-11-09T06:55:07;100090.78;;;19.74;58.35
74615;BME280;63121;51.458;-0.110;2022-11-09T06:57:33;100098.50;;;19.75;58.19
74615;BME280;63121;51.458;-0.110;2022-11-09T06:59:58;100100.28;;;19.75;58.12
74615;BME280;63121;51.458;-0.110;2022-11-09T07:02:24;100102.91;;;19.75;58.12
74615;BME280;63121;51.458;-0.110;2022-11-09T07:04:53;100120.22;;;19.77;58.08
74615;BME280;63121;51.458;-0.110;2022-11-09T07:07:18;100120.31;;;19.76;58.09
74615;BME280;63121;51.458;-0.110;2022-11-09T07:09:43;100127.44;;;19.74;58.37
74615;BME280;63121;51.458;-0.110;2022-11-09T07:12:09;100131.81;;;19.73;58.99
74615;BME280;63121;51.458;-0.110;2022-11-09T07:14:34;100140.41;;;19.75;58.34
74615;BME280;63121;51.458;-0.110;2022-11-09T07:17:00;100142.94;;;19.77;58.34
74615;BME280;63121;51.458;-0.110;2022-11-09T07:19:27;100150.66;;;19.80;58.27
74615;BME280;63121;51.458;-0.110;2022-11-09T07:21:53;100149.69;;;19.81;58.58
74615;BME280;63121;51.458;-0.110;2022-11-09T07:24:19;100161.00;;;19.81;59.12
74615;BME280;63121;51.458;-0.110;2022-11-09T07:26:46;100161.88;;;19.82;58.82
74615;BME280;63121;51.458;-0.110;2022-11-09T07:29:12;100165.31;;;19.82;58.61
74615;BME280;63121;51.458;-0.110;2022-11-09T07:31:37;100166.16;;;19.83;58.59
74615;BME280;63121;51.458;-0.110;2022-11-09T07:34:02;100165.25;;;19.84;58.63
74615;BME280;63121;51.458;-0.110;2022-11-09T07:36:29;100164.38;;;19.83;58.57
74615;BME280;63121;51.458;-0.110;2022-11-09T07:38:56;100179.75;;;19.89;58.36
74615;BME280;63121;51.458;-0.110;2022-11-09T07:41:22;100182.09;;;19.94;58.69
74615;BME280;63121;51.458;-0.110;2022-11-09T07:43:47;100189.69;;;19.99;58.59
74615;BME280;63121;51.458;-0.110;2022-11-09T07:46:13;100194.94;;;19.99;57.93
74615;BME280;63121;51.458;-0.110;2022-11-09T07:48:38;100203.72;;;19.98;58.13
74615;BME280;63121;51.458;-0.110;2022-11-09T07:51:03;100207.94;;;20.00;58.68
74615;BME280;63121;51.458;-0.110;2022-11-09T07:53:29;100197.09;;;20.06;58.74
74615;BME280;63121;51.458;-0.110;2022-11-09T07:56:02;100213.41;;;20.12;58.69
74615;BME280;63121;51.458;-0.110;2022-11-09T07:58:28;100213.41;;;20.12;58.31
74615;BME280;63121;51.458;-0.110;2022-11-09T08:00:54;100214.16;;;20.14;58.52
74615;BME280;63121;51.458;-0.110;2022-11-09T08:03:20;100221.06;;;20.15;58.69
74615;BME280;63121;51.458;-0.110;2022-11-09T08:05:47;100220.31;;;20.13;58.05
74615;BME280;63121;51.458;-0.110;2022-11-09T08:08:13;100230.03;;;20.10;58.35
74615;BME280;63121;51.458;-0.110;2022-11-09T08:10:41;100235.28;;;20.10;58.48
74615;BME280;63121;51.458;-0.110;2022-11-09T08:13:10;100239.59;;;20.12;58.00
74615;BME280;63121;51.458;-0.110;2022-11-09T08:15:36;100246.59;;;20.11;58.17
74615;BME280;63121;51.458;-0.110;2022-11-09T08:18:12;100256.91;;;20.14;58.05
74615;BME280;63121;51.458;-0.110;2022-11-09T08:20:37;100260.56;;;20.12;58.26
74615;BME280;63121;51.458;-0.110;2022-11-09T08:23:03;100251.94;;;20.09;58.47
74615;BME280;63121;51.458;-0.110;2022-11-09T08:25:29;100259.81;;;20.09;58.01
74615;BME280;63121;51.458;-0.110;2022-11-09T08:27:55;100256.25;;;20.10;57.67
74615;BME280;63121;51.458;-0.110;2022-11-09T08:30:21;100260.56;;;20.12;58.30
74615;BME280;63121;51.458;-0.110;2022-11-09T08:32:47;100268.44;;;20.12;57.98
74615;BME280;63121;51.458;-0.110;2022-11-09T08:35:16;100273.66;;;20.12;57.98
74615;BME280;63121;51.458;-0.110;2022-11-09T08:37:45;100272.72;;;20.13;58.14
74615;BME280;63121;51.458;-0.110;2022-11-09T08:40:11;100279.75;;;20.12;58.17
74615;BME280;63121;51.458;-0.110;2022-11-09T08:42:37;100280.59;;;20.13;57.96
74615;BME280;63121;51.458;-0.110;2022-11-09T08:45:03;100283.13;;;20.14;57.92
74615;BME280;63121;51.458;-0.110;2022-11-09T08:47:29;100294.63;;;20.12;57.83
74615;BME280;63121;51.458;-0.110;2022-11-09T08:49:54;100306.78;;;20.13;57.52
74615;BME280;63121;51.458;-0.110;2022-11-09T08:52:19;100309.59;;;20.09;57.69
74615;BME280;63121;51.458;-0.110;2022-11-09T08:54:45;100319.22;;;20.09;56.88
74615;BME280;63121;51.458;-0.110;2022-11-09T08:57:10;100333.25;;;20.08;56.87
74615;BME280;63121;51.458;-0.110;2022-11-09T08:59:36;100327.44;;;20.03;57.70
74615;BME280;63121;51.458;-0.110;2022-11-09T09:02:01;100349.06;;;20.06;57.09
74615;BME280;63121;51.458;-0.110;2022-11-09T09:04:27;100344.91;;;20.02;57.12
74615;BME280;63121;51.458;-0.110;2022-11-09T09:06:53;100354.66;;;20.00;57.21
74615;BME280;63121;51.458;-0.110;2022-11-09T09:09:19;100354.84;;;19.97;57.58
74615;BME280;63121;51.458;-0.110;2022-11-09T09:11:45;100358.38;;;19.96;57.39
74615;BME280;63121;51.458;-0.110;2022-11-09T09:14:10;100374.94;;;19.97;57.45
74615;BME280;63121;51.458;-0.110;2022-11-09T09:16:35;100369.78;;;19.95;57.38
74615;BME280;63121;51.458;-0.110;2022-11-09T09:19:01;100372.41;;;19.95;57.70
74615;BME280;63121;51.458;-0.110;2022-11-09T09:21:26;100374.28;;;19.93;57.71
74615;BME280;63121;51.458;-0.110;2022-11-09T09:23:52;100376.88;;;19.93;57.56
74615;BME280;63121;51.458;-0.110;2022-11-09T09:26:18;100381.38;;;19.91;57.58
74615;BME280;63121;51.458;-0.110;2022-11-09T09:28:43;100392.94;;;19.87;57.13
74615;BME280;63121;51.458;-0.110;2022-11-09T09:31:09;100391.28;;;19.86;57.98
74615;BME280;63121;51.458;-0.110;2022-11-09T09:33:34;100400.22;;;19.82;57.58
74615;BME280;63121;51.458;-0.110;2022-11-09T09:36:00;100380.19;;;19.81;58.07
74615;BME280;63121;51.458;-0.110;2022-11-09T09:38:26;100401.06;;;19.82;57.30
74615;BME280;63121;51.458;-0.110;2022-11-09T09:41:00;100399.28;;;19.83;58.43
74615;BME280;63121;51.458;-0.110;2022-11-09T09:43:36;100408.91;;;19.82;57.63
74615;BME280;63121;51.458;-0.110;2022-11-09T09:46:11;100411.63;;;19.81;57.50
74615;BME280;63121;51.458;-0.110;2022-11-09T09:48:47;100398.38;;;18.47;52.37
74615;BME280;63121;51.458;-0.110;2022-11-09T09:51:40;100414.56;;;16.38;58.15
74615;BME280;63121;51.458;-0.110;2022-11-09T09:54:11;100416.75;;;15.09;62.69
74615;BME280;63121;51.458;-0.110;2022-11-09T09:56:43;100427.50;;;15.48;61.04
74615;BME280;63121;51.458;-0.110;2022-11-09T10:01:40;100418.78;;;14.74;64.83
74615;BME280;63121;51.458;-0.110;2022-11-09T10:04:22;100433.41;;;14.48;64.35
74615;BME280;63121;51.458;-0.110;2022-11-09T10:07:01;100447.56;;;14.39;66.26
74615;BME280;63121;51.458;-0.110;2022-11-09T10:23:03;100451.41;;;14.56;64.24
74615;BME280;63121;51.458;-0.110;2022-11-09T10:25:36;100467.16;;;14.50;65.01
74615;BME280;63121;51.458;-0.110;2022-11-09T10:28:10;100476.06;;;15.22;62.04
74615;BME280;63121;51.458;-0.110;2022-11-09T10:30:38;100476.84;;;14.73;63.42
74615;BME280;63121;51.458;-0.110;2022-11-09T10:38:00;100492.75;;;15.15;62.01
74615;BME280;63121;51.458;-0.110;2022-11-09T10:40:48;100490.31;;;15.11;62.06
74615;BME280;63121;51.458;-0.110;2022-11-09T10:43:15;100498.03;;;15.39;61.22
74615;BME280;63121;51.458;-0.110;2022-11-09T10:45:43;100502.81;;;15.26;61.53
74615;BME280;63121;51.458;-0.110;2022-11-09T10:48:11;100506.91;;;15.58;60.59
74615;BME280;63121;51.458;-0.110;2022-11-09T10:53:16;100519.28;;;15.27;61.50
74615;BME280;63121;51.458;-0.110;2022-11-09T10:58:25;100507.81;;;14.79;62.45
74615;BME280;63121;51.458;-0.110;2022-11-09T11:03:41;100515.13;;;15.21;61.62
74615;BME280;63121;51.458;-0.110;2022-11-09T11:06:15;100534.44;;;14.59;62.68
74615;BME280;63121;51.458;-0.110;2022-11-09T11:08:43;100520.53;;;14.60;62.35
74615;BME280;63121;51.458;-0.110;2022-11-09T11:11:29;100522.00;;;14.97;61.91
74615;BME280;63121;51.458;-0.110;2022-11-09T11:16:45;100543.84;;;15.18;61.17
74615;BME280;63121;51.458;-0.110;2022-11-09T11:22:16;100541.75;;;15.54;60.16
74615;BME280;63121;51.458;-0.110;2022-11-09T11:25:00;100537.31;;;16.07;58.33
74615;BME280;63121;51.458;-0.110;2022-11-09T11:30:14;100536.44;;;16.06;58.84
74615;BME280;63121;51.458;-0.110;2022-11-09T11:32:41;100535.38;;;16.12;58.75
74615;BME280;63121;51.458;-0.110;2022-11-09T11:35:23;100547.63;;;15.59;59.05
74615;BME280;63121;51.458;-0.110;2022-11-09T11:38:02;100557.31;;;16.52;56.65
74615;BME280;63121;51.458;-0.110;2022-11-09T11:40:39;100553.78;;;16.53;56.67
74615;BME280;63121;51.458;-0.110;2022-11-09T11:51:16;100557.88;;;15.64;59.23
74615;BME280;63121;51.458;-0.110;2022-11-09T12:16:08;100605.97;;;15.79;57.19
74615;BME280;63121;51.458;-0.110;2022-11-09T12:24:17;100599.53;;;15.89;56.82
74615;BME280;63121;51.458;-0.110;2022-11-09T12:27:25;100605.25;;;15.75;56.75
74615;BME280;63121;51.458;-0.110;2022-11-09T12:29:54;100605.34;;;16.21;55.55
74615;BME280;63121;51.458;-0.110;2022-11-09T12:35:17;100610.34;;;16.74;56.21
74615;BME280;63121;51.458;-0.110;2022-11-09T12:38:14;100623.75;;;16.16;55.34
74615;BME280;63121;51.458;-0.110;2022-11-09T12:43:25;100605.31;;;16.46;54.97
74615;BME280;63121;51.458;-0.110;2022-11-09T12:45:52;100621.31;;;16.35;55.39
74615;BME280;63121;51.458;-0.110;2022-11-09T12:48:27;100618.41;;;16.44;54.23
74615;BME280;63121;51.458;-0.110;2022-11-09T12:50:54;100612.50;;;16.39;54.56
74615;BME280;63121;51.458;-0.110;2022-11-09T12:53:27;100612.66;;;16.58;54.33
74615;BME280;63121;51.458;-0.110;2022-11-09T12:55:59;100615.34;;;16.08;54.83
74615;BME280;63121;51.458;-0.110;2022-11-09T12:58:28;100620.97;;;16.21;55.63
74615;BME280;63121;51.458;-0.110;2022-11-09T13:00:56;100624.88;;;15.84;56.54
74615;BME280;63121;51.458;-0.110;2022-11-09T13:03:25;100643.91;;;15.86;55.40
74615;BME280;63121;51.458;-0.110;2022-11-09T13:06:22;100638.06;;;15.79;56.45
74615;BME280;63121;51.458;-0.110;2022-11-09T13:09:03;100644.97;;;15.25;56.72
74615;BME280;63121;51.458;-0.110;2022-11-09T13:11:34;100642.84;;;15.65;55.76
74615;BME280;63121;51.458;-0.110;2022-11-09T13:16:54;100642.91;;;15.90;55.75
74615;BME280;63121;51.458;-0.110;2022-11-09T13:27:36;100660.78;;;15.99;56.54
74615;BME280;63121;51.458;-0.110;2022-11-09T13:35:58;100673.31;;;15.90;56.75
74615;BME280;63121;51.458;-0.110;2022-11-09T13:38:30;100670.41;;;15.97;56.36
74615;BME280;63121;51.458;-0.110;2022-11-09T13:41:01;100666.56;;;15.82;57.52
74615;BME280;63121;51.458;-0.110;2022-11-09T13:43:31;100670.00;;;16.10;56.30
74615;BME280;63121;51.458;-0.110;2022-11-09T13:46:02;100688.34;;;16.07;56.83
74615;BME280;63121;51.458;-0.110;2022-11-09T13:48:45;100682.00;;;16.39;55.89
74615;BME280;63121;51.458;-0.110;2022-11-09T13:54:02;100700.78;;;15.72;55.13
74615;BME280;63121;51.458;-0.110;2022-11-09T13:56:38;100688.44;;;16.29;53.83
74615;BME280;63121;51.458;-0.110;2022-11-09T13:59:13;100689.38;;;16.75;53.27
74615;BME280;63121;51.458;-0.110;2022-11-09T14:01:59;100704.88;;;16.54;51.96
74615;BME280;63121;51.458;-0.110;2022-11-09T14:04:25;100704.63;;;16.62;51.44
74615;BME280;63121;51.458;-0.110;2022-11-09T14:07:04;100713.59;;;16.78;51.32
74615;BME280;63121;51.458;-0.110;2022-11-09T14:10:09;100710.00;;;16.82;50.20
74615;BME280;63121;51.458;-0.110;2022-11-09T14:21:16;100712.06;;;17.86;49.96
74615;BME280;63121;51.458;-0.110;2022-11-09T14:23:46;100710.44;;;16.94;51.31
74615;BME280;63121;51.458;-0.110;2022-11-09T14:26:21;100717.06;;;18.52;48.53
74615;BME280;63121;51.458;-0.110;2022-11-09T14:28:47;100726.75;;;18.09;49.27
74615;BME280;63121;51.458;-0.110;2022-11-09T14:31:27;100720.19;;;18.40;48.20
74615;BME280;63121;51.458;-0.110;2022-11-09T14:34:04;100722.03;;;18.77;47.37
74615;BME280;63121;51.458;-0.110;2022-11-09T14:36:32;100746.69;;;19.11;46.79
74615;BME280;63121;51.458;-0.110;2022-11-09T14:39:00;100744.84;;;18.94;46.79
74615;BME280;63121;51.458;-0.110;2022-11-09T14:41:27;100759.81;;;18.51;47.71
74615;BME280;63121;51.458;-0.110;2022-11-09T14:43:55;100756.72;;;17.78;49.00
74615;BME280;63121;51.458;-0.110;2022-11-09T14:46:24;100755.38;;;16.75;51.20